North Spring Valley, Nevada Weather observations

Data are for 10 minute period ending at time listed.
 Day   Time   Solar   Ave.   Ave.  Ave.  Vector  Max.   Baro.   Total    
  of    of     Rad.   Air    Rel.  Wind   Wind   Wind  Press.  Precip.   
Year   Day            Temp.  Hum.  Speed  Dir.   Gust                    
2015   (PST)  Kw/m2    F      %     mph   deg.    mph    mb.     in.     
-------------------------------------------------------------------------
 179   15:20   0.68   95.3    16    4.8   114    12.6   827.9    0.00 
 179   15:30   0.65   96.5    12    6.8   166    14.8   827.8    0.00 
 179   15:40   0.62   95.8    12    3.0    83     6.4   827.8    0.00 
 179   15:50   0.60   96.5    12    3.1   161     7.1   827.8    0.00 
 179   16:00   0.56   95.7    12    4.4   151     8.3   827.7    0.00 
 179   16:10   0.39   95.4    12    5.4   150     9.6   827.7    0.00 
 179   16:20   0.20   94.3    13    3.4   158     6.6   827.6    0.00 
 179   16:30   0.22   94.1    13    1.8   222     7.2   827.5    0.00 
 179   16:40   0.27   93.6    12    5.9   214    11.3   827.4    0.00 
 179   16:50   0.32   93.4    12    5.9   232    11.2   827.3    0.00 
 179   17:00   0.22   92.2    13    4.2   243     6.6   827.2    0.00 
 179   17:10   0.35   91.7    16    3.7   241     6.2   827.2    0.00 
 179   17:20   0.28   94.9    14    2.0   275     4.5   827.4    0.00 
 179   17:30   0.12   91.9    14    6.2   172    11.2   827.5    0.00 
 179   17:40   0.10   89.4    15    6.3   162     9.3   827.5    0.00 
 179   17:50   0.08   89.9    13    5.5   168     8.4   827.5    0.00 
 179   18:00   0.07   89.9    14    4.1   172     7.5   827.5    0.00 
 179   18:10   0.08   88.6    15    3.4   140     5.1   827.6    0.00 
 179   18:20   0.07   88.7    14    4.1   171     5.5   827.6    0.00 
 179   18:30   0.04   89.8    13    3.9   210     5.6   827.6    0.00 
 179   18:40   0.03   87.5    16    5.4   281    11.5   827.7    0.00 
 179   18:50   0.02   87.9    15    8.8   288    15.2   827.6    0.00 
 179   19:00   0.01   86.8    17    7.4   298    14.2   827.7    0.00 
 179   19:10   0.00   85.7    17    4.9   281     8.6   827.8    0.00 
 179   19:20   0.00   85.9    17    3.4   302     5.8   827.9    0.00 
 179   19:30   0.00   86.1    15    2.8    98     7.3   828.0    0.00 
 179   19:40   0.00   85.1    16    1.3   294     2.5   828.0    0.00 
 179   19:50   0.00   84.9    15    2.3   341     3.4   828.0    0.00 
 179   20:00   0.00   82.7    20    4.4   307     5.7   828.0    0.00 
 179   20:10   0.00   79.4    22    5.4   294     6.4   828.0    0.00 
 179   20:20   0.00   79.9    22    3.2   245     5.1   828.0    0.00 
 179   20:30   0.00   77.8    22    0.9   279     3.1   828.1    0.00 
 179   20:40   0.00   82.5    18    4.1   269     5.8   828.2    0.00 
 179   20:50   0.00   79.4    22    3.2   280     5.8   828.3    0.00 
 179   21:00   0.00   80.0    20    1.9   141     6.7   828.5    0.00 
 179   21:10   0.00   80.0    19    2.6   197     5.8   828.6    0.00 
 179   21:20   0.00   81.0    18    3.0   184     4.4   828.6    0.00 
 179   21:30   0.00   80.5    21    2.4   273     4.6   828.5    0.00 
 179   21:40   0.00   78.3    23    3.8   329     4.9   828.4    0.00 
 179   21:50   0.00   77.5    23    2.8   319     5.8   828.4    0.00 
 179   22:00   0.00   77.5    23    2.7   321     4.7   828.4    0.00 
 179   22:10   0.00   77.0    25    4.1   343     5.4   828.5    0.00 
 179   22:20   0.00   77.8    25    3.5   312     4.7   828.5    0.00 
 179   22:30   0.00   76.3    26    0.6    21     2.5   828.6    0.00 
 179   22:40   0.00   77.3    23    1.9   282     5.4   828.7    0.00 
 179   22:50   0.00   75.5    27    4.1   294     5.6   828.7    0.00 
 179   23:00   0.00   77.9    22    3.2   259     5.0   828.8    0.00 
 179   23:10   0.00   77.1    23    3.6   335     5.0   828.8    0.00 
 179   23:20   0.00   74.9    26    3.0   341     4.5   828.8    0.00 
 179   23:30   0.00   74.6    24    1.6   265     4.7   828.9    0.00 
 179   23:40   0.00   74.3    26    3.9   321     6.2   829.0    0.00 
 179   23:50   0.00   74.5    26    1.0   278     2.7   829.1    0.00 
 180    0:00   0.00   74.2    26    2.2   337     4.2   829.1    0.00 
 180    0:10   0.00   70.2    31    4.4   303     6.0   829.2    0.00 
 180    0:20   0.00   68.7    30    4.0   325     6.3   829.3    0.00 
 180    0:30   0.00   69.2    31    4.3   322     6.6   829.3    0.00 
 180    0:40   0.00   68.8    31    3.7   337     6.2   829.3    0.00 
 180    0:50   0.00   68.4    32    3.9   359     6.4   829.3    0.00 
 180    1:00   0.00   68.0    32    3.8   310     6.1   829.4    0.00 
 180    1:10   0.00   67.2    33    4.1   328     6.2   829.5    0.00 
 180    1:20   0.00   66.2    34    4.5   306     5.9   829.4    0.00 
 180    1:30   0.00   65.9    34    4.3   299     5.8   829.4    0.00 
 180    1:40   0.00   66.8    32    3.8   325     5.8   829.3    0.00 
 180    1:50   0.00   68.4    30    3.0   282     6.8   829.5    0.00 
 180    2:00   0.00   68.6    30    2.7   330     6.2   829.5    0.00 
 180    2:10   0.00   64.6    37    3.1   288     5.8   829.6    0.00 
 180    2:20   0.00   64.5    36    3.2   328     4.7   829.6    0.00 
 180    2:30   0.00   65.0    35    2.2   332     3.9   829.7    0.00 
 180    2:40   0.00   63.2    39    3.0   315     6.4   829.7    0.00 
 180    2:50   0.00   62.2    41    3.2   284     7.8   829.7    0.00 
 180    3:00   0.00   61.5    41    3.6   310     5.7   829.7    0.00 
 180    3:10   0.00   62.0    41    2.6   311     4.7   829.8    0.00 
 180    3:20   0.00   61.1    45    3.3   301     7.1   829.9    0.00 
 180    3:30   0.00   61.2    42    3.2   321     6.1   829.9    0.00 
 180    3:40   0.00   61.7    41    4.2   294     6.4   830.0    0.00 
 180    3:50   0.00   62.8    39    3.7   310     4.8   830.0    0.00 
 180    4:00   0.00   62.5    38    2.6   328     5.3   830.1    0.00 
 180    4:10   0.00   63.8    36    2.6   338     4.9   830.1    0.00 
 180    4:20   0.01   63.8    37    3.4   277     7.1   830.2    0.00 
 180    4:30   0.02   63.6    39    2.8   280     5.8   830.3    0.00 
 180    4:40   0.04   63.8    39    3.1   316     5.7   830.4    0.00 
 180    4:50   0.06   64.9    37    1.8   274     5.0   830.4    0.00 
 180    5:00   0.09   67.1    38    2.4   303     3.9   830.5    0.00 
 180    5:10   0.12   69.2    35    1.4   277     2.9   830.6    0.00 
 180    5:20   0.14   70.8    39    1.6   315     3.6   830.7    0.00 
 180    5:30   0.17   70.2    37    2.9    20     4.7   830.8    0.00 
 180    5:40   0.20   69.1    40    2.3    12     3.4   830.8    0.00 
 180    5:50   0.22   69.7    43    1.4    24     3.4   830.8    0.00 
 180    6:00   0.24   70.5    41    1.1   289     2.6   830.9    0.00 
 180    6:10   0.29   71.5    41    0.4   294     2.2   830.9    0.00 
 180    6:20   0.29   73.7    37    1.5   358     2.8   830.8    0.00 
 180    6:30   0.36   74.5    39    1.5    55     3.0   830.8    0.00 
 180    6:40   0.39   74.5    40    1.9    74     4.0   830.9    0.00 
 180    6:50   0.41   74.8    36    2.0    88     3.6   830.8    0.00 
 180    7:00   0.45   77.2    31    0.8   124     2.2   830.8    0.00 
 180    7:10   0.48   77.4    35    1.4   300     3.4   830.8    0.00 
 180    7:20   0.51   79.6    30    1.0    45     1.9   830.7    0.00 
 180    7:30   0.54   80.9    26    0.8    34     2.4   830.7    0.00 
 180    7:40   0.58   82.1    28    1.1    88     3.3   830.7    0.00 
 180    7:50   0.60   81.4    30    2.9   107     5.1   830.7    0.00 
 180    8:00   0.64   83.0    26    2.7   142     4.9   830.6    0.00 
 180    8:10   0.67   84.3    25    6.2   156    10.2   830.5    0.00 
 180    8:20   0.66   85.2    24    5.5   157     9.0   830.5    0.00 
 180    8:30   0.74   86.0    24    3.5   136     6.3   830.5    0.00 
 180    8:40   0.77   87.1    24    3.3   148     6.6   830.6    0.00 
 180    8:50   0.79   88.3    22    4.5   139     8.9   830.6    0.00 
 180    9:00   0.82   88.3    22    5.4   125     9.2   830.6    0.00 
 180    9:10   0.82   88.6    21    3.6    97     7.5   830.6    0.00 
 180    9:20   0.76   88.9    22    3.6    98     7.5   830.6    0.00 
 180    9:30   0.86   88.9    20    3.0    92     5.7   830.6    0.00 
 180    9:40   0.91   90.2    19    3.9   128    10.2   830.6    0.00 
 180    9:50   0.89   90.7    19    4.3   149     8.3   830.6    0.00 
 180   10:00   0.93   90.2    20    4.0    98     8.8   830.5    0.00 
 180   10:10   0.97   91.2    19    2.8   102     8.0   830.5    0.00 
 180   10:20   0.99   92.3    18    2.5   195     7.2   830.5    0.00 
 180   10:30   1.00   91.9    22    4.1    67     7.5   830.4    0.00 
 180   10:40   1.01   92.6    20    4.3    31     8.6   830.4    0.00 
 180   10:50   1.03   92.6    20    4.7     9     7.7   830.4    0.00 
 180   11:00   1.05   92.6    19    3.6   129     7.2   830.4    0.00 
 180   11:10   1.03   93.6    17    3.0   177     7.5   830.3    0.00 
 180   11:20   1.04   93.0    20    3.6    84    10.0   830.1    0.00 
 180   11:30   1.06   92.9    17    5.0   113    11.2   830.1    0.00 
 180   11:40   1.07   94.1    15    3.3    20     6.6   830.0    0.00 
 180   11:50   1.08   94.3    16    4.1     8    11.3   829.9    0.00 
 180   12:00   1.09   94.5    19    3.8    53    10.2   829.8    0.00 
 180   12:10   0.89   94.2    16    8.2   134    15.1   829.8    0.00 
 180   12:20   0.53   92.6    15    6.3   142    11.3   829.8    0.00 
 180   12:30   0.85   94.0    15    5.6   134    13.8   829.7    0.00 
 180   12:40   0.38   92.4    16    7.5   145    12.2   829.6    0.00 
 180   12:50   0.57   92.3    16    7.5   148    12.7   829.5    0.00 
 180   13:00   0.80   93.8    16   10.6   165    20.2   829.5    0.00 
 180   13:10   0.42   94.1    13   17.4   192    26.6   829.5    0.00 
 180   13:20   0.36   92.4    15   12.4   225    20.6   829.5    0.00 
 180   13:30   0.13   89.8    18   11.8   247    18.1   829.3    0.00 
 180   13:40   0.71   90.5    20    9.1   268    15.1   829.2    0.00 
 180   13:50   0.61   91.2    18    5.3   252    11.3   829.2    0.00 
 180   14:00   0.82   94.3    14    4.1   211     8.8   829.2    0.00 
 180   14:10   0.59   94.2    16    6.0   230    14.6   829.1    0.00 
 180   14:20   0.59   93.7    14    6.2   157    11.5   828.9    0.00 
 180   14:30   0.89   95.4    14    5.9   161    13.4   828.8    0.00 
 180   14:40   0.80   95.7    14    2.0   129     6.9   828.8    0.00 
 180   14:50   0.31   93.5    15    2.4    47     4.9   828.7    0.00 
 180   15:00   0.37   92.6    14    3.8    66     7.9   828.7    0.00 
 180   15:10   0.61   95.0    19    1.0   303     2.1   828.6    0.00 

Return to North Spring Valley graphs page.


Western Regional Climate Center,wrcc@dri.edu